SWA958 KBNA-KCHS
Flight info
| Callsign | SWA958 |
|---|---|
| Flight time | 1h 2m |
| Altitude | 35000 |
| Route | TAZMO4 BURME DCT LORNN DCT MHONY DCT DEFFN OSPRI7 |
| Aircraft | B38M/M-SDE2E3GHIJ4J7P2RWZ/LB1D1 |
Departure
| Time | 2026-04-25 21:56 |
|---|---|
| Airport | Nashville International Airport (KBNA) |
Arrival
| Time | 2026-04-25 22:58 |
|---|---|
| Airport | Charleston International Airport (KCHS) |
| Time | Latitude | Longitude | Altitude | Speed | Heading |
|---|---|---|---|---|---|
| 2026-04-25 21:23 | 36.12829 | -86.66875 | 610 ft | 0 kts | 253° |
| 2026-04-25 21:43 | 36.12832 | -86.66863 | 610 ft | 2 kts | 253° |
| 2026-04-25 21:43 | 36.12837 | -86.66841 | 610 ft | 3 kts | 252° |
| 2026-04-25 21:43 | 36.12847 | -86.66820 | 610 ft | 3 kts | 226° |
| 2026-04-25 21:43 | 36.12856 | -86.66811 | 610 ft | 0 kts | 213° |
| 2026-04-25 21:48 | 36.12853 | -86.66813 | 610 ft | 1 kts | 198° |
| 2026-04-25 21:48 | 36.12844 | -86.66810 | 610 ft | 2 kts | 145° |
| 2026-04-25 21:48 | 36.12820 | -86.66776 | 610 ft | 10 kts | 129° |
| 2026-04-25 21:48 | 36.12763 | -86.66769 | 610 ft | 8 kts | 209° |
| 2026-04-25 21:49 | 36.12722 | -86.66809 | 610 ft | 7 kts | 224° |
| 2026-04-25 21:49 | 36.12685 | -86.66852 | 610 ft | 7 kts | 221° |
| 2026-04-25 21:49 | 36.12658 | -86.66881 | 610 ft | 3 kts | 221° |
| 2026-04-25 21:49 | 36.12647 | -86.66893 | 610 ft | 1 kts | 221° |
| 2026-04-25 21:50 | 36.12646 | -86.66895 | 610 ft | 0 kts | 221° |
| 2026-04-25 21:50 | 36.12644 | -86.66896 | 610 ft | 2 kts | 221° |
| 2026-04-25 21:50 | 36.12627 | -86.66907 | 610 ft | 7 kts | 195° |
| 2026-04-25 21:51 | 36.12512 | -86.66935 | 610 ft | 18 kts | 203° |
| 2026-04-25 21:51 | 36.12405 | -86.66996 | 610 ft | 15 kts | 173° |
| 2026-04-25 21:51 | 36.12327 | -86.66919 | 610 ft | 17 kts | 130° |
| 2026-04-25 21:51 | 36.12264 | -86.66762 | 610 ft | 23 kts | 108° |
| 2026-04-25 21:52 | 36.12219 | -86.66585 | 610 ft | 20 kts | 109° |
| 2026-04-25 21:52 | 36.12145 | -86.66557 | 610 ft | 13 kts | 197° |
| 2026-04-25 21:52 | 36.12031 | -86.66603 | 610 ft | 22 kts | 198° |
| 2026-04-25 21:52 | 36.11860 | -86.66671 | 610 ft | 30 kts | 197° |
| 2026-04-25 21:53 | 36.11663 | -86.66750 | 610 ft | 27 kts | 198° |
| 2026-04-25 21:53 | 36.11500 | -86.66816 | 610 ft | 23 kts | 198° |
| 2026-04-25 21:53 | 36.11403 | -86.66855 | 610 ft | 21 kts | 198° |
| 2026-04-25 21:53 | 36.11317 | -86.66865 | 610 ft | 1 kts | 136° |
| 2026-04-25 21:54 | 36.11313 | -86.66859 | 610 ft | 2 kts | 130° |
| 2026-04-25 21:54 | 36.11295 | -86.66814 | 610 ft | 11 kts | 109° |
| 2026-04-25 21:54 | 36.11310 | -86.66748 | 610 ft | 4 kts | 27° |
| 2026-04-25 21:54 | 36.11314 | -86.66747 | 610 ft | 0 kts | 18° |
| 2026-04-25 21:55 | 36.11346 | -86.66734 | 610 ft | 20 kts | 18° |
| 2026-04-25 21:55 | 36.11683 | -86.66600 | 610 ft | 82 kts | 18° |
| 2026-04-25 21:55 | 36.12409 | -86.66308 | 611 ft | 138 kts | 18° |
| 2026-04-25 21:56 | 36.13385 | -86.65907 | 1024 ft | 149 kts | 17° |
| 2026-04-25 21:56 | 36.14395 | -86.65455 | 1588 ft | 160 kts | 19° |
| 2026-04-25 21:56 | 36.15456 | -86.64905 | 2137 ft | 171 kts | 21° |
| 2026-04-25 21:56 | 36.16569 | -86.64225 | 2616 ft | 188 kts | 30° |
| 2026-04-25 21:57 | 36.17616 | -86.63151 | 3095 ft | 205 kts | 43° |
| 2026-04-25 21:57 | 36.18574 | -86.61736 | 3562 ft | 225 kts | 51° |
| 2026-04-25 21:57 | 36.19573 | -86.60152 | 4074 ft | 243 kts | 51° |
| 2026-04-25 21:57 | 36.20653 | -86.58444 | 4558 ft | 262 kts | 51° |
| 2026-04-25 21:58 | 36.21652 | -86.56544 | 5296 ft | 267 kts | 65° |
| 2026-04-25 21:58 | 36.22012 | -86.54288 | 6120 ft | 270 kts | 86° |
| 2026-04-25 21:58 | 36.21757 | -86.51960 | 6803 ft | 276 kts | 101° |
| 2026-04-25 21:58 | 36.21267 | -86.49663 | 6957 ft | 277 kts | 104° |
| 2026-04-25 21:59 | 36.20735 | -86.47368 | 6986 ft | 277 kts | 105° |
| 2026-04-25 21:59 | 36.20196 | -86.45106 | 6992 ft | 277 kts | 105° |
| 2026-04-25 21:59 | 36.19589 | -86.42808 | 6990 ft | 280 kts | 110° |
| 2026-04-25 22:00 | 36.18005 | -86.38383 | 8284 ft | 285 kts | 112° |
| 2026-04-25 22:00 | 36.17203 | -86.36123 | 9250 ft | 289 kts | 112° |
| 2026-04-25 22:00 | 36.16391 | -86.33824 | 10155 ft | 294 kts | 113° |
| 2026-04-25 22:00 | 36.15553 | -86.31440 | 10770 ft | 310 kts | 113° |
| 2026-04-25 22:01 | 36.14669 | -86.28927 | 11327 ft | 326 kts | 114° |
| 2026-04-25 22:01 | 36.13744 | -86.26296 | 11861 ft | 341 kts | 114° |
| 2026-04-25 22:01 | 36.12784 | -86.23567 | 12567 ft | 349 kts | 115° |
| 2026-04-25 22:01 | 36.12139 | -86.21730 | 13078 ft | 352 kts | 115° |
| 2026-04-25 22:02 | 36.10819 | -86.17982 | 14092 ft | 359 kts | 115° |
| 2026-04-25 22:02 | 36.09815 | -86.15132 | 14784 ft | 365 kts | 115° |
| 2026-04-25 22:02 | 36.08797 | -86.12246 | 14958 ft | 367 kts | 115° |
| 2026-04-25 22:02 | 36.07777 | -86.09351 | 14978 ft | 366 kts | 115° |
| 2026-04-25 22:03 | 36.07148 | -86.06294 | 14999 ft | 369 kts | 99° |
| 2026-04-25 22:03 | 36.06870 | -86.03128 | 15124 ft | 373 kts | 97° |
| 2026-04-25 22:03 | 36.06623 | -85.99934 | 15751 ft | 375 kts | 97° |
| 2026-04-25 22:03 | 36.06386 | -85.96708 | 16442 ft | 379 kts | 96° |
| 2026-04-25 22:04 | 36.06153 | -85.93435 | 17068 ft | 384 kts | 96° |
| 2026-04-25 22:04 | 36.05918 | -85.90126 | 17676 ft | 389 kts | 96° |
| 2026-04-25 22:04 | 36.05681 | -85.86784 | 18269 ft | 393 kts | 96° |
| 2026-04-25 22:04 | 36.05442 | -85.83397 | 18850 ft | 397 kts | 96° |
| 2026-04-25 22:05 | 36.05199 | -85.79975 | 19417 ft | 402 kts | 96° |
| 2026-04-25 22:05 | 36.04960 | -85.76519 | 19969 ft | 406 kts | 96° |
| 2026-04-25 22:05 | 36.04717 | -85.73026 | 20509 ft | 410 kts | 96° |
| 2026-04-25 22:05 | 36.04471 | -85.69514 | 21041 ft | 413 kts | 96° |
| 2026-04-25 22:06 | 36.04222 | -85.65962 | 21544 ft | 417 kts | 96° |
| 2026-04-25 22:06 | 36.03968 | -85.62365 | 22039 ft | 421 kts | 96° |
| 2026-04-25 22:06 | 36.03711 | -85.58748 | 22522 ft | 425 kts | 96° |
| 2026-04-25 22:06 | 36.03451 | -85.55088 | 22995 ft | 429 kts | 96° |
| 2026-04-25 22:07 | 36.03187 | -85.51399 | 23460 ft | 432 kts | 96° |
| 2026-04-25 22:07 | 36.03041 | -85.48954 | 23750 ft | 435 kts | 93° |
| 2026-04-25 22:07 | 36.03359 | -85.43938 | 24338 ft | 441 kts | 79° |
| 2026-04-25 22:07 | 36.04068 | -85.40242 | 24775 ft | 444 kts | 74° |
| 2026-04-25 22:08 | 36.04962 | -85.36584 | 25205 ft | 447 kts | 72° |
| 2026-04-25 22:08 | 36.05901 | -85.32909 | 25626 ft | 450 kts | 72° |
| 2026-04-25 22:08 | 36.06853 | -85.29211 | 26042 ft | 453 kts | 72° |
| 2026-04-25 22:08 | 36.07810 | -85.25491 | 26465 ft | 455 kts | 72° |
| 2026-04-25 22:09 | 36.08775 | -85.21760 | 26856 ft | 458 kts | 72° |
| 2026-04-25 22:09 | 36.09737 | -85.18049 | 27247 ft | 460 kts | 72° |
| 2026-04-25 22:09 | 36.10723 | -85.14265 | 27631 ft | 463 kts | 71° |
| 2026-04-25 22:09 | 36.11727 | -85.10422 | 28008 ft | 465 kts | 71° |
| 2026-04-25 22:10 | 36.12716 | -85.06659 | 28364 ft | 468 kts | 71° |
| 2026-04-25 22:10 | 36.13726 | -85.02823 | 28741 ft | 470 kts | 71° |
| 2026-04-25 22:10 | 36.14747 | -84.98972 | 29084 ft | 472 kts | 71° |
| 2026-04-25 22:10 | 36.15775 | -84.95109 | 29456 ft | 474 kts | 72° |
| 2026-04-25 22:11 | 36.16543 | -84.91131 | 29773 ft | 476 kts | 81° |
| 2026-04-25 22:11 | 36.16812 | -84.87050 | 30105 ft | 476 kts | 91° |
| 2026-04-25 22:11 | 36.16625 | -84.82954 | 30435 ft | 477 kts | 97° |
| 2026-04-25 22:11 | 36.16277 | -84.78867 | 30760 ft | 479 kts | 98° |
| 2026-04-25 22:12 | 36.15899 | -84.74759 | 31064 ft | 481 kts | 100° |
| 2026-04-25 22:12 | 36.15204 | -84.70726 | 31344 ft | 480 kts | 108° |
| 2026-04-25 22:12 | 36.14281 | -84.66690 | 31655 ft | 482 kts | 109° |
| 2026-04-25 22:12 | 36.13658 | -84.64055 | 31860 ft | 483 kts | 109° |
| 2026-04-25 22:13 | 36.12409 | -84.58756 | 32235 ft | 486 kts | 109° |
| 2026-04-25 22:13 | 36.11330 | -84.54791 | 32480 ft | 486 kts | 116° |
| 2026-04-25 22:13 | 36.09839 | -84.50998 | 32838 ft | 481 kts | 124° |
| 2026-04-25 22:13 | 36.07821 | -84.47855 | 33202 ft | 471 kts | 139° |
| 2026-04-25 22:14 | 36.05552 | -84.44933 | 33616 ft | 470 kts | 138° |
| 2026-04-25 22:14 | 36.03355 | -84.41948 | 33980 ft | 471 kts | 137° |
| 2026-04-25 22:14 | 36.01180 | -84.38910 | 34319 ft | 471 kts | 136° |
| 2026-04-25 22:14 | 35.99029 | -84.35864 | 34631 ft | 472 kts | 136° |
| 2026-04-25 22:15 | 35.96875 | -84.32792 | 34888 ft | 474 kts | 136° |
| 2026-04-25 22:15 | 35.95422 | -84.30715 | 34915 ft | 475 kts | 136° |
| 2026-04-25 22:16 | 35.88999 | -84.21535 | 34908 ft | 473 kts | 136° |
| 2026-04-25 22:16 | 35.84701 | -84.15404 | 34905 ft | 473 kts | 136° |
| 2026-04-25 22:17 | 35.80403 | -84.09285 | 34902 ft | 473 kts | 136° |
| 2026-04-25 22:17 | 35.76090 | -84.03156 | 34901 ft | 473 kts | 136° |
| 2026-04-25 22:18 | 35.71783 | -83.97047 | 34901 ft | 473 kts | 136° |
| 2026-04-25 22:18 | 35.67474 | -83.90944 | 34902 ft | 473 kts | 136° |
| 2026-04-25 22:19 | 35.63146 | -83.84828 | 34903 ft | 473 kts | 136° |
| 2026-04-25 22:19 | 35.58826 | -83.78731 | 34916 ft | 474 kts | 136° |
| 2026-04-25 22:20 | 35.54515 | -83.72660 | 34922 ft | 474 kts | 136° |
| 2026-04-25 22:20 | 35.50179 | -83.66565 | 34928 ft | 474 kts | 136° |
| 2026-04-25 22:21 | 35.45834 | -83.60466 | 34934 ft | 474 kts | 136° |
| 2026-04-25 22:21 | 35.41495 | -83.54388 | 34942 ft | 474 kts | 136° |
| 2026-04-25 22:22 | 35.37147 | -83.48308 | 34956 ft | 475 kts | 136° |
| 2026-04-25 22:22 | 35.32786 | -83.42221 | 34962 ft | 475 kts | 136° |
| 2026-04-25 22:23 | 35.28446 | -83.36174 | 34965 ft | 475 kts | 136° |
| 2026-04-25 22:23 | 35.24087 | -83.30109 | 34962 ft | 475 kts | 136° |
| 2026-04-25 22:24 | 35.19714 | -83.24038 | 34959 ft | 476 kts | 136° |
| 2026-04-25 22:24 | 35.15332 | -83.17964 | 34952 ft | 476 kts | 136° |
| 2026-04-25 22:25 | 35.10948 | -83.11899 | 34945 ft | 476 kts | 136° |
| 2026-04-25 22:25 | 35.06562 | -83.05840 | 34938 ft | 476 kts | 136° |
| 2026-04-25 22:26 | 35.02168 | -82.99782 | 34926 ft | 477 kts | 136° |
| 2026-04-25 22:26 | 34.97778 | -82.93740 | 34917 ft | 476 kts | 136° |
| 2026-04-25 22:27 | 34.93539 | -82.87510 | 34905 ft | 481 kts | 126° |
| 2026-04-25 22:27 | 34.90183 | -82.80430 | 34898 ft | 483 kts | 123° |
| 2026-04-25 22:28 | 34.86874 | -82.73289 | 34892 ft | 484 kts | 123° |
| 2026-04-25 22:28 | 34.83579 | -82.66181 | 34891 ft | 483 kts | 123° |
| 2026-04-25 22:29 | 34.80266 | -82.59047 | 34894 ft | 484 kts | 123° |
| 2026-04-25 22:29 | 34.76953 | -82.51930 | 34902 ft | 483 kts | 123° |
| 2026-04-25 22:30 | 34.72806 | -82.43040 | 34907 ft | 483 kts | 123° |
| 2026-04-25 22:30 | 34.70049 | -82.37142 | 34909 ft | 483 kts | 123° |
| 2026-04-25 22:31 | 34.66169 | -82.28860 | 34907 ft | 483 kts | 123° |
| 2026-04-25 22:31 | 34.62844 | -82.21777 | 34906 ft | 482 kts | 123° |
| 2026-04-25 22:32 | 34.59515 | -82.14702 | 34902 ft | 482 kts | 122° |
| 2026-04-25 22:32 | 34.56188 | -82.07643 | 34904 ft | 482 kts | 122° |
| 2026-04-25 22:33 | 34.52852 | -82.00580 | 34901 ft | 482 kts | 122° |
| 2026-04-25 22:33 | 34.49426 | -81.93685 | 34882 ft | 478 kts | 131° |
| 2026-04-25 22:34 | 34.47083 | -81.90870 | 34908 ft | 473 kts | 144° |
| 2026-04-25 22:34 | 34.44459 | -81.88402 | 34901 ft | 471 kts | 147° |
| 2026-04-25 22:34 | 34.39190 | -81.83780 | 34904 ft | 470 kts | 148° |
| 2026-04-25 22:35 | 34.33840 | -81.79223 | 34907 ft | 470 kts | 149° |
| 2026-04-25 22:35 | 34.28490 | -81.74699 | 34906 ft | 469 kts | 149° |
| 2026-04-25 22:36 | 34.23142 | -81.70186 | 34895 ft | 469 kts | 149° |
| 2026-04-25 22:36 | 34.20458 | -81.67924 | 34376 ft | 468 kts | 149° |
| 2026-04-25 22:36 | 34.17785 | -81.65673 | 33576 ft | 471 kts | 149° |
| 2026-04-25 22:37 | 34.15092 | -81.63412 | 32831 ft | 472 kts | 149° |
| 2026-04-25 22:37 | 34.12377 | -81.61163 | 32140 ft | 472 kts | 149° |
| 2026-04-25 22:37 | 34.09684 | -81.58931 | 31574 ft | 469 kts | 149° |
| 2026-04-25 22:37 | 34.07014 | -81.56719 | 31084 ft | 464 kts | 148° |
| 2026-04-25 22:38 | 34.05472 | -81.55442 | 30798 ft | 461 kts | 148° |
| 2026-04-25 22:38 | 34.02816 | -81.53243 | 30272 ft | 457 kts | 148° |
| 2026-04-25 22:38 | 34.00166 | -81.51051 | 29708 ft | 454 kts | 148° |
| 2026-04-25 22:38 | 33.97569 | -81.48905 | 29146 ft | 451 kts | 148° |
| 2026-04-25 22:39 | 33.94990 | -81.46776 | 28605 ft | 448 kts | 148° |
| 2026-04-25 22:39 | 33.92424 | -81.44660 | 28073 ft | 444 kts | 148° |
| 2026-04-25 22:39 | 33.89904 | -81.42629 | 27511 ft | 441 kts | 149° |
| 2026-04-25 22:39 | 33.87353 | -81.40580 | 26990 ft | 438 kts | 149° |
| 2026-04-25 22:40 | 33.84830 | -81.38553 | 26486 ft | 434 kts | 149° |
| 2026-04-25 22:40 | 33.82335 | -81.36548 | 25978 ft | 430 kts | 149° |
| 2026-04-25 22:40 | 33.79863 | -81.34562 | 25462 ft | 426 kts | 149° |
| 2026-04-25 22:40 | 33.77408 | -81.32592 | 24943 ft | 423 kts | 149° |
| 2026-04-25 22:41 | 33.74968 | -81.30635 | 24426 ft | 419 kts | 149° |
| 2026-04-25 22:41 | 33.72634 | -81.28557 | 23824 ft | 421 kts | 140° |
| 2026-04-25 22:41 | 33.70578 | -81.26062 | 23318 ft | 418 kts | 136° |
| 2026-04-25 22:41 | 33.68571 | -81.23561 | 22854 ft | 413 kts | 136° |
| 2026-04-25 22:42 | 33.66591 | -81.21087 | 22385 ft | 409 kts | 136° |
| 2026-04-25 22:42 | 33.64627 | -81.18632 | 21888 ft | 406 kts | 136° |
| 2026-04-25 22:42 | 33.62677 | -81.16197 | 21386 ft | 403 kts | 136° |
| 2026-04-25 22:42 | 33.60744 | -81.13783 | 20884 ft | 400 kts | 136° |
| 2026-04-25 22:43 | 33.58827 | -81.11392 | 20388 ft | 397 kts | 136° |
| 2026-04-25 22:43 | 33.56917 | -81.09011 | 19895 ft | 394 kts | 136° |
| 2026-04-25 22:43 | 33.55024 | -81.06653 | 19406 ft | 391 kts | 136° |
| 2026-04-25 22:43 | 33.53148 | -81.04316 | 18918 ft | 388 kts | 136° |
| 2026-04-25 22:44 | 33.51283 | -81.01996 | 18432 ft | 385 kts | 136° |
| 2026-04-25 22:44 | 33.49431 | -80.99693 | 17947 ft | 382 kts | 136° |
| 2026-04-25 22:44 | 33.47597 | -80.97413 | 17469 ft | 379 kts | 136° |
| 2026-04-25 22:44 | 33.45772 | -80.95147 | 17045 ft | 375 kts | 136° |
| 2026-04-25 22:45 | 33.43979 | -80.92923 | 16621 ft | 370 kts | 136° |
| 2026-04-25 22:45 | 33.42194 | -80.90709 | 16165 ft | 367 kts | 136° |
| 2026-04-25 22:45 | 33.40427 | -80.88520 | 15693 ft | 364 kts | 136° |
| 2026-04-25 22:45 | 33.38670 | -80.86343 | 15215 ft | 362 kts | 136° |
| 2026-04-25 22:46 | 33.36932 | -80.84191 | 14742 ft | 359 kts | 136° |
| 2026-04-25 22:46 | 33.35199 | -80.82047 | 14269 ft | 356 kts | 135° |
| 2026-04-25 22:46 | 33.33481 | -80.79923 | 13800 ft | 354 kts | 135° |
| 2026-04-25 22:46 | 33.31782 | -80.77824 | 13329 ft | 351 kts | 135° |
| 2026-04-25 22:47 | 33.30090 | -80.75733 | 12862 ft | 348 kts | 135° |
| 2026-04-25 22:47 | 33.28412 | -80.73664 | 12400 ft | 345 kts | 135° |
| 2026-04-25 22:47 | 33.26740 | -80.71601 | 11937 ft | 342 kts | 135° |
| 2026-04-25 22:47 | 33.25089 | -80.69565 | 11476 ft | 340 kts | 135° |
| 2026-04-25 22:48 | 33.23572 | -80.67415 | 10947 ft | 340 kts | 123° |
| 2026-04-25 22:48 | 33.22547 | -80.64889 | 10653 ft | 334 kts | 115° |
| 2026-04-25 22:48 | 33.21653 | -80.62369 | 10403 ft | 324 kts | 114° |
| 2026-04-25 22:48 | 33.20813 | -80.59948 | 10182 ft | 315 kts | 114° |
| 2026-04-25 22:49 | 33.19997 | -80.57569 | 9928 ft | 306 kts | 113° |
| 2026-04-25 22:49 | 33.19187 | -80.55196 | 9542 ft | 303 kts | 113° |
| 2026-04-25 22:49 | 33.18410 | -80.52906 | 9150 ft | 301 kts | 113° |
| 2026-04-25 22:49 | 33.17628 | -80.50602 | 8760 ft | 298 kts | 114° |
| 2026-04-25 22:50 | 33.16852 | -80.48315 | 8369 ft | 296 kts | 114° |
| 2026-04-25 22:50 | 33.16082 | -80.46046 | 7972 ft | 294 kts | 114° |
| 2026-04-25 22:50 | 33.15319 | -80.43797 | 7590 ft | 291 kts | 114° |
| 2026-04-25 22:50 | 33.14561 | -80.41566 | 7210 ft | 289 kts | 114° |
| 2026-04-25 22:51 | 33.13874 | -80.39325 | 6788 ft | 289 kts | 105° |
| 2026-04-25 22:51 | 33.13680 | -80.36942 | 6403 ft | 288 kts | 94° |
| 2026-04-25 22:51 | 33.13624 | -80.34546 | 6002 ft | 287 kts | 92° |
| 2026-04-25 22:51 | 33.13585 | -80.32178 | 5616 ft | 285 kts | 92° |
| 2026-04-25 22:52 | 33.13553 | -80.29826 | 5289 ft | 281 kts | 92° |
| 2026-04-25 22:52 | 33.13526 | -80.27522 | 5059 ft | 273 kts | 92° |
| 2026-04-25 22:52 | 33.13500 | -80.25295 | 4857 ft | 265 kts | 92° |
| 2026-04-25 22:52 | 33.13417 | -80.23858 | 4681 ft | 260 kts | 101° |
| 2026-04-25 22:53 | 33.12311 | -80.21415 | 4374 ft | 244 kts | 131° |
| 2026-04-25 22:53 | 33.11102 | -80.20068 | 4239 ft | 232 kts | 142° |
| 2026-04-25 22:53 | 33.09823 | -80.18964 | 4072 ft | 223 kts | 147° |
| 2026-04-25 22:53 | 33.08556 | -80.17951 | 3947 ft | 214 kts | 149° |
| 2026-04-25 22:54 | 33.07340 | -80.17006 | 3786 ft | 205 kts | 150° |
| 2026-04-25 22:54 | 33.06149 | -80.16094 | 3498 ft | 202 kts | 150° |
| 2026-04-25 22:54 | 33.05010 | -80.15222 | 3222 ft | 200 kts | 150° |
| 2026-04-25 22:54 | 33.03846 | -80.14335 | 2945 ft | 197 kts | 150° |
| 2026-04-25 22:55 | 33.02699 | -80.13461 | 2680 ft | 193 kts | 150° |
| 2026-04-25 22:55 | 33.01574 | -80.12604 | 2423 ft | 190 kts | 150° |
| 2026-04-25 22:55 | 33.00485 | -80.11777 | 2221 ft | 182 kts | 150° |
| 2026-04-25 22:55 | 32.99462 | -80.10999 | 1952 ft | 173 kts | 150° |
| 2026-04-25 22:56 | 32.98453 | -80.10234 | 1698 ft | 168 kts | 150° |
| 2026-04-25 22:56 | 32.97474 | -80.09491 | 1488 ft | 166 kts | 150° |
| 2026-04-25 22:56 | 32.96510 | -80.08759 | 1307 ft | 157 kts | 149° |
| 2026-04-25 22:56 | 32.95628 | -80.08090 | 1071 ft | 147 kts | 150° |
| 2026-04-25 22:57 | 32.94775 | -80.07443 | 872 ft | 145 kts | 150° |
| 2026-04-25 22:57 | 32.93922 | -80.06793 | 701 ft | 147 kts | 149° |
| 2026-04-25 22:57 | 32.93053 | -80.06140 | 480 ft | 146 kts | 150° |
| 2026-04-25 22:57 | 32.92207 | -80.05488 | 282 ft | 143 kts | 149° |
| 2026-04-25 22:58 | 32.91382 | -80.04867 | 113 ft | 141 kts | 150° |
| 2026-04-25 22:58 | 32.90604 | -80.04281 | 57 ft | 108 kts | 150° |
| 2026-04-25 22:58 | 32.90156 | -80.03944 | 57 ft | 63 kts | 146° |
| 2026-04-25 22:58 | 32.89850 | -80.03711 | 56 ft | 38 kts | 148° |
| 2026-04-25 22:59 | 32.89650 | -80.03582 | 56 ft | 24 kts | 177° |
| 2026-04-25 22:59 | 32.89497 | -80.03585 | 56 ft | 21 kts | 181° |
| 2026-04-25 22:59 | 32.89360 | -80.03590 | 56 ft | 18 kts | 181° |
| 2026-04-25 22:59 | 32.89236 | -80.03594 | 56 ft | 18 kts | 181° |
| 2026-04-25 23:00 | 32.89119 | -80.03597 | 56 ft | 16 kts | 181° |
| 2026-04-25 23:00 | 32.89015 | -80.03602 | 56 ft | 14 kts | 185° |
| 2026-04-25 23:00 | 32.88907 | -80.03619 | 56 ft | 18 kts | 187° |
| 2026-04-25 23:00 | 32.88791 | -80.03636 | 56 ft | 15 kts | 192° |
| 2026-04-25 23:01 | 32.88756 | -80.03692 | 56 ft | 8 kts | 261° |
| 2026-04-25 23:01 | 32.88743 | -80.03775 | 56 ft | 13 kts | 252° |
| 2026-04-25 23:01 | 32.88702 | -80.03867 | 56 ft | 13 kts | 232° |
| 2026-04-25 23:01 | 32.88636 | -80.03946 | 56 ft | 10 kts | 225° |
| 2026-04-25 23:02 | 32.88610 | -80.03957 | 56 ft | 1 kts | 159° |
| 2026-04-25 23:02 | 32.88603 | -80.03949 | 56 ft | 1 kts | 121° |
| 2026-04-25 23:02 | 32.88603 | -80.03936 | 56 ft | 5 kts | 77° |
| 2026-04-25 23:02 | 32.88607 | -80.03879 | 56 ft | 4 kts | 100° |
| 2026-04-25 23:03 | 32.88605 | -80.03864 | 56 ft | 0 kts | 100° |